福島空港の過去48時間の天気

福島空港 (Fukushima)

現在時刻: 10/18 13:02 JST (10/18 04:02 UTC) 以下の時間は現地時間です。

過去48時間のMETAR気象情報
時間 風向 風速(m/s) 視程 気温(℃) 湿度(%) 気圧(hPa) 天気現象
18 12:00 不定 2 10km以上 16 68 1016
18 11:00 北北西 3 10km以上 15 77 1017
18 10:00 4 10km以上 12 94 1017
18 09:35 4 5000m 11 100 1017 もや
18 09:00 西 2 2000m 11 100 1017 散在した霧 もや
18 08:47 不定 1 4000m 11 100 1017 もや
18 08:35 不定 1 1500m 10 100 1018 散在した霧 もや
18 08:15 不定 1 1000m 10 100 1018 散在した霧 もや
18 08:00 不定 1 900m 9 100 1018
18 07:47 静穏 0 900m 9 100 1018
18 07:30 静穏 0 200m 8 100 1018
18 07:00 不定 1 200m 7 100 1017
18 06:40 不定 1 200m 7 100 1017
17 20:00 不定 1 10km以上 11 94 1015
17 19:00 不定 1 10km以上 12 82 1014
17 18:00 2 10km以上 13 82 1014
17 17:00 北北東 3 10km以上 13 88 1013
17 16:00 4 10km以上 15 77 1012
17 15:00 5 10km以上 16 72 1012
17 14:00 北北東 4 10km以上 15 77 1011
17 13:00 北北東 3 10km以上 14 82 1012
17 12:00 北北東 4 10km以上 14 82 1012
17 11:00 5 10km以上 13 94 1012 弱いしゅう雨
17 10:40 5 10km以上 13 94 1013
17 10:09 6 10km以上 13 94 1013
17 10:00 6 10km以上 14 88 1012
17 09:00 北北西 5 10km以上 13 94 1012
17 08:47 5 7000m 13 100 1012
17 08:32 4 5000m 13 100 1012 もや
17 08:23 4 3000m 13 100 1012 散在した霧 もや
17 08:00 北北西 3 2000m 12 100 1012 散在した霧 もや
17 07:44 2 1500m 12 100 1012 散在した霧 もや
17 07:34 3 1000m 12 100 1011 散在した霧 もや
17 07:16 3 500m 12 100 1011
17 07:09 北北西 3 300m 12 100 1011
17 07:00 北北西 4 300m 12 100 1011
17 06:51 3 300m 12 100 1011
17 06:40 北北西 2 300m 12 100 1011
16 20:00 北東 2 10km以上 12 100 1012
16 19:00 不定 1 10km以上 14 88 1013
16 18:00 不定 1 10km以上 15 82 1013
16 17:00 1 10km以上 15 88 1013
16 16:00 不定 1 10km以上 17 72 1013
16 15:00 不定 1 10km以上 18 60 1013
16 14:00 北北東 2 10km以上 18 64 1013
RJSF 180300Z VRB03KT 9999 FEW030 16/10 Q1016
RJSF 180200Z 34005KT 280V020 9999 FEW020 15/11 Q1017
RJSF 180100Z 35008KT 9999 FEW005 SCT110 12/11 Q1017
RJSF 180035Z 36007KT 320V020 5000 BR FEW001 SCT002 BKN110 11/11 Q1017 RMK 1ST001 4ST002 6AC110 A3005
RJSF 180000Z 28003KT 240V330 2000 R01/1400VP1800D BCFG BR FEW001 SCT002 BKN110 11/11 Q1017
RJSF 172347Z VRB02KT 4000 BR FEW001 SCT002 BKN110 11/11 Q1017 RMK 1ST001 3ST002 6AC110 A3006
RJSF 172335Z VRB02KT 1500 R01/P1800N BCFG BR FEW001 SCT002 BKN110 10/10 Q1018 RMK 2ST001 3ST002 7AC110 A3006
RJSF 172315Z VRB02KT 1000 R01/P1800N BCFG BR FEW001 SCT002 BKN110 10/10 Q1018 RMK 2ST001 4ST002 7AC110 A3006
RJSF 172300Z VRB01KT 0900 R01/P1800N FG SCT001 BKN002 BKN110 09/09 Q1018
RJSF 172247Z 00000KT 0900 R01/0800VP1800U FG FEW001 BKN002 BKN100 09/09 Q1018 RMK 1ST001 6ST002 7AC100 A3006
RJSF 172230Z 00000KT 0200 R01/0250V0800U FG FEW001 BKN002 08/08 Q1018 RMK 1ST001 7ST002 A3006
RJSF 172200Z VRB02KT 0200 R01/0150V0200N FG FEW001 BKN002 07/07 Q1017
RJSF 172140Z VRB02KT 0200 R01/0100V0150N FG VV002 07/07 Q1017 RMK A3005
RJSF 171100Z VRB02KT 9999 FEW020 BKN/// 11/10 Q1015
RJSF 171000Z VRB02KT 9999 FEW020 12/09 Q1014
RJSF 170900Z 01003KT 340V050 9999 FEW020 13/10 Q1014
RJSF 170800Z 03005KT 9999 FEW020 BKN/// 13/11 Q1013
RJSF 170700Z 36008KT 9999 FEW020 BKN/// 15/11 Q1012
RJSF 170600Z 01009KT 9999 FEW020 SCT070 BKN/// 16/11 Q1012
RJSF 170500Z 02007KT 340V060 9999 FEW005 SCT060 BKN070 15/11 Q1011
RJSF 170400Z 02006KT 9999 FEW005 SCT030 BKN060 14/11 Q1012
RJSF 170300Z 02008KT 9999 FEW005 BKN010 BKN050 14/11 Q1012
RJSF 170200Z 36009KT 9999 -SHRA FEW004 SCT010 BKN050 13/12 Q1012
RJSF 170140Z 35009KT 9999 FEW004 SCT007 BKN045 13/12 Q1013 RMK 1ST004 3ST007 7CU045 A2991
RJSF 170109Z 36012KT 9999 FEW005 SCT006 BKN008 13/12 Q1013 RMK 1ST005 3ST006 5ST008 A2992
RJSF 170100Z 35012KT 9999 FEW007 SCT010 BKN020 14/12 Q1012
RJSF 170000Z 34010KT 9999 FEW004 SCT008 BKN010 13/12 Q1012
RJSF 162347Z 36009KT 7000 FEW003 SCT008 BKN010 13/13 Q1012 RMK 1ST003 3ST008 5ST010 A2990
RJSF 162332Z 36008KT 5000 BR FEW003 SCT004 BKN006 13/13 Q1012 RMK 2ST003 4ST004 5ST006 A2989
RJSF 162323Z 35008KT 3000 BCFG BR FEW002 SCT003 BKN004 13/13 Q1012 RMK 1ST002 4ST003 6ST004 A2989 7000S
RJSF 162300Z 34005KT 300V010 2000 BCFG BR FEW001 BKN002 BKN003 12/12 Q1012
RJSF 162244Z 35003KT 310V030 1500 R01/P1800N BCFG BR FEW001 BKN002 12/12 Q1012 RMK 2ST001 7ST002 A2989
RJSF 162234Z 01005KT 1000 R01/P1800U BCFG BR FEW001 BKN002 12/12 Q1011 RMK 2ST001 7ST002 A2987
RJSF 162216Z 35006KT 310V010 0500 R01/0350VP1800U FG FEW001 BKN002 12/12 Q1011 RMK 1ST001 7ST002 A2987
RJSF 162209Z 33006KT 0300 R01/0250V1500U FG VV002 12/12 Q1011 RMK A2987
RJSF 162200Z 34007KT 0300 R01/0550V1200D FG VV002 12/12 Q1011
RJSF 162151Z 35006KT 0300 R01/0400V1800U FG VV002 12/12 Q1011 RMK A2986
RJSF 162140Z 33004KT 300V010 0300 R01/0250V0300N FG VV002 12/12 Q1011 RMK A2986
RJSF 161100Z 04003KT 9999 FEW020 BKN/// 12/12 Q1012
RJSF 161000Z VRB01KT 9999 FEW020 BKN/// 14/12 Q1013
RJSF 160900Z VRB01KT 9999 FEW020 BKN/// 15/12 Q1013
RJSF 160800Z 10002KT 9999 FEW020 BKN/// 15/13 Q1013
RJSF 160700Z VRB02KT 9999 FEW030 BKN/// 17/12 Q1013
RJSF 160600Z VRB02KT 9999 FEW030 BKN/// 18/10 Q1013
RJSF 160500Z 02003KT 320V060 9999 FEW020 SCT060 BKN/// 18/11 Q1013